sensor_id;sensor_type;location;lat;lon;timestamp;pressure;altitude;pressure_sealevel;temperature;humidity
69772;BME280;57046;45.988;18.664;2022-08-30T16:31:24;100627.63;;;22.76;100.00
69772;BME280;57046;45.988;18.664;2022-08-30T16:33:49;100636.63;;;23.01;100.00
69772;BME280;57046;45.988;18.664;2022-08-30T16:36:18;100631.91;;;22.98;100.00
69772;BME280;57046;45.988;18.664;2022-08-30T16:46:07;100618.19;;;22.77;100.00
69772;BME280;57046;45.988;18.664;2022-08-30T16:49:11;100614.66;;;22.73;100.00
69772;BME280;57046;45.988;18.664;2022-08-30T16:51:45;100619.78;;;22.74;100.00
69772;BME280;57046;45.988;18.664;2022-08-30T16:54:13;100611.53;;;22.71;100.00
69772;BME280;57046;45.988;18.664;2022-08-30T16:56:38;100649.25;;;23.02;100.00
69772;BME280;57046;45.988;18.664;2022-08-30T16:59:04;100636.63;;;22.98;100.00
69772;BME280;57046;45.988;18.664;2022-08-30T17:01:31;100641.00;;;22.95;100.00
69772;BME280;57046;45.988;18.664;2022-08-30T17:25:27;100629.66;;;22.51;100.00
69772;BME280;57046;45.988;18.664;2022-08-30T17:31:09;100670.59;;;22.66;100.00
69772;BME280;57046;45.988;18.664;2022-08-30T17:33:43;100672.16;;;22.67;100.00
69772;BME280;57046;45.988;18.664;2022-08-30T17:49:57;100706.03;;;22.71;100.00
69772;BME280;57046;45.988;18.664;2022-08-30T17:52:41;100713.47;;;22.64;100.00
69772;BME280;57046;45.988;18.664;2022-08-30T17:55:25;100705.63;;;22.52;100.00
69772;BME280;57046;45.988;18.664;2022-08-30T17:58:36;100709.53;;;22.47;100.00
69772;BME280;57046;45.988;18.664;2022-08-30T18:01:07;100719.41;;;22.45;100.00
69772;BME280;57046;45.988;18.664;2022-08-30T18:03:34;100731.59;;;22.44;100.00
69772;BME280;57046;45.988;18.664;2022-08-30T18:05:59;100734.34;;;22.40;100.00
69772;BME280;57046;45.988;18.664;2022-08-30T18:08:25;100735.50;;;22.39;100.00
69772;BME280;57046;45.988;18.664;2022-08-30T18:10:53;100722.94;;;22.35;100.00
69772;BME280;57046;45.988;18.664;2022-08-30T18:13:21;100730.41;;;22.34;100.00
69772;BME280;57046;45.988;18.664;2022-08-30T18:15:46;100733.16;;;22.30;100.00
69772;BME280;57046;45.988;18.664;2022-08-30T18:18:12;100737.47;;;22.21;100.00
69772;BME280;57046;45.988;18.664;2022-08-30T18:20:38;100743.00;;;22.21;100.00
69772;BME280;57046;45.988;18.664;2022-08-30T18:23:06;100738.25;;;22.11;100.00
69772;BME280;57046;45.988;18.664;2022-08-30T18:25:31;100740.59;;;22.09;100.00
69772;BME280;57046;45.988;18.664;2022-08-30T18:27:57;100744.13;;;22.06;100.00
69772;BME280;57046;45.988;18.664;2022-08-30T18:30:22;100742.94;;;22.03;100.00
69772;BME280;57046;45.988;18.664;2022-08-30T18:32:50;100739.78;;;22.01;100.00
69772;BME280;57046;45.988;18.664;2022-08-30T18:35:16;100746.88;;;21.99;100.00
69772;BME280;57046;45.988;18.664;2022-08-30T18:37:41;100742.13;;;21.96;100.00
69772;BME280;57046;45.988;18.664;2022-08-30T18:40:07;100744.50;;;21.90;100.00
69772;BME280;57046;45.988;18.664;2022-08-30T18:42:32;100754.66;;;21.82;100.00
69772;BME280;57046;45.988;18.664;2022-08-30T18:44:57;100752.28;;;21.81;100.00
69772;BME280;57046;45.988;18.664;2022-08-30T18:47:23;100762.97;;;21.93;100.00
69772;BME280;57046;45.988;18.664;2022-08-30T18:49:48;100760.97;;;21.87;100.00
69772;BME280;57046;45.988;18.664;2022-08-30T18:52:14;100758.28;;;21.94;100.00
69772;BME280;57046;45.988;18.664;2022-08-30T18:54:41;100763.75;;;21.90;100.00
69772;BME280;57046;45.988;18.664;2022-08-30T18:57:07;100757.81;;;21.84;100.00
69772;BME280;57046;45.988;18.664;2022-08-30T18:59:33;100758.97;;;21.80;100.00
69772;BME280;57046;45.988;18.664;2022-08-30T19:01:58;100758.56;;;21.74;100.00
69772;BME280;57046;45.988;18.664;2022-08-30T19:04:24;100764.84;;;21.71;100.00
69772;BME280;57046;45.988;18.664;2022-08-30T19:06:51;100765.59;;;21.65;100.00
69772;BME280;57046;45.988;18.664;2022-08-30T19:09:17;100754.56;;;21.58;100.00
69772;BME280;57046;45.988;18.664;2022-08-30T19:11:43;100762.03;;;21.61;100.00
69772;BME280;57046;45.988;18.664;2022-08-30T19:14:11;100745.47;;;21.47;100.00
69772;BME280;57046;45.988;18.664;2022-08-30T19:23:19;100758.44;;;21.43;100.00
69772;BME280;57046;45.988;18.664;2022-08-30T19:25:44;100769.03;;;21.44;100.00
69772;BME280;57046;45.988;18.664;2022-08-30T19:28:10;100759.59;;;21.42;100.00
69772;BME280;57046;45.988;18.664;2022-08-30T19:30:36;100758.03;;;21.41;100.00
69772;BME280;57046;45.988;18.664;2022-08-30T19:33:01;100761.53;;;21.38;100.00
69772;BME280;57046;45.988;18.664;2022-08-30T19:35:27;100754.47;;;21.33;100.00
69772;BME280;57046;45.988;18.664;2022-08-30T19:37:53;100761.16;;;21.36;100.00
69772;BME280;57046;45.988;18.664;2022-08-30T19:40:19;100763.09;;;21.31;100.00
69772;BME280;57046;45.988;18.664;2022-08-30T19:42:45;100763.47;;;21.30;100.00
69772;BME280;57046;45.988;18.664;2022-08-30T19:45:12;100758.34;;;21.25;100.00
69772;BME280;57046;45.988;18.664;2022-08-30T19:47:38;100759.91;;;21.22;100.00
69772;BME280;57046;45.988;18.664;2022-08-30T19:50:06;100767.75;;;21.24;100.00
69772;BME280;57046;45.988;18.664;2022-08-30T19:52:35;100760.69;;;21.19;100.00
69772;BME280;57046;45.988;18.664;2022-08-30T19:55:13;100763.44;;;21.19;100.00
69772;BME280;57046;45.988;18.664;2022-08-30T19:57:41;100759.44;;;21.13;100.00
69772;BME280;57046;45.988;18.664;2022-08-30T20:00:10;100767.28;;;21.11;100.00
69772;BME280;57046;45.988;18.664;2022-08-30T20:02:38;100766.06;;;21.05;100.00
69772;BME280;57046;45.988;18.664;2022-08-30T20:05:07;100756.97;;;20.98;100.00
69772;BME280;57046;45.988;18.664;2022-08-30T20:07:33;100752.19;;;20.88;100.00
69772;BME280;57046;45.988;18.664;2022-08-30T20:09:59;100765.97;;;20.95;100.00
69772;BME280;57046;45.988;18.664;2022-08-30T20:12:25;100752.97;;;20.88;100.00
69772;BME280;57046;45.988;18.664;2022-08-30T20:14:50;100752.19;;;20.88;100.00
69772;BME280;57046;45.988;18.664;2022-08-30T20:17:16;100745.16;;;20.94;100.00
69772;BME280;57046;45.988;18.664;2022-08-30T20:19:41;100741.25;;;20.95;100.00
69772;BME280;57046;45.988;18.664;2022-08-30T20:22:12;100733.38;;;20.93;100.00
69772;BME280;57046;45.988;18.664;2022-08-30T20:24:41;100735.31;;;20.89;100.00
69772;BME280;57046;45.988;18.664;2022-08-30T20:27:13;100725.84;;;20.83;100.00
69772;BME280;57046;45.988;18.664;2022-08-30T20:32:47;100726.25;;;20.81;100.00
69772;BME280;57046;45.988;18.664;2022-08-30T20:56:01;100694.88;;;20.35;100.00
69772;BME280;57046;45.988;18.664;2022-08-30T21:19:42;100705.63;;;20.10;100.00
69772;BME280;57046;45.988;18.664;2022-08-30T21:22:17;100702.03;;;20.03;100.00
69772;BME280;57046;45.988;18.664;2022-08-30T21:24:56;100714.19;;;20.05;100.00
69772;BME280;57046;45.988;18.664;2022-08-30T21:34:06;100723.47;;;19.94;100.00
69772;BME280;57046;45.988;18.664;2022-08-30T21:37:11;100730.88;;;19.86;100.00
69772;BME280;57046;45.988;18.664;2022-08-30T21:39:43;100725.22;;;19.72;100.00
69772;BME280;57046;45.988;18.664;2022-08-30T21:42:08;100714.16;;;19.65;100.00
69772;BME280;57046;45.988;18.664;2022-08-30T21:44:34;100724.34;;;19.64;100.00
69772;BME280;57046;45.988;18.664;2022-08-30T21:46:59;100719.25;;;19.63;100.00
69772;BME280;57046;45.988;18.664;2022-08-30T21:49:24;100725.44;;;19.60;100.00
69772;BME280;57046;45.988;18.664;2022-08-30T21:51:51;100724.22;;;19.54;100.00
69772;BME280;57046;45.988;18.664;2022-08-30T21:54:17;100727.66;;;19.47;100.00
69772;BME280;57046;45.988;18.664;2022-08-30T21:56:45;100732.69;;;19.42;100.00
69772;BME280;57046;45.988;18.664;2022-08-30T21:59:12;100731.41;;;19.36;100.00
69772;BME280;57046;45.988;18.664;2022-08-30T22:01:38;100714.91;;;19.32;100.00
69772;BME280;57046;45.988;18.664;2022-08-30T22:04:06;100722.00;;;19.37;100.00
69772;BME280;57046;45.988;18.664;2022-08-30T22:06:33;100709.03;;;19.33;100.00
69772;BME280;57046;45.988;18.664;2022-08-30T22:09:05;100713.41;;;19.38;100.00
69772;BME280;57046;45.988;18.664;2022-08-30T22:18:41;100717.38;;;19.41;100.00
69772;BME280;57046;45.988;18.664;2022-08-30T22:21:11;100712.28;;;19.39;100.00
69772;BME280;57046;45.988;18.664;2022-08-30T22:23:40;100711.00;;;19.33;100.00
69772;BME280;57046;45.988;18.664;2022-08-30T22:26:07;100716.56;;;19.40;100.00
69772;BME280;57046;45.988;18.664;2022-08-30T22:28:39;100711.09;;;19.40;100.00
69772;BME280;57046;45.988;18.664;2022-08-30T22:31:07;100698.84;;;19.30;100.00
69772;BME280;57046;45.988;18.664;2022-08-30T22:33:51;100704.72;;;19.32;100.00
69772;BME280;57046;45.988;18.664;2022-08-30T22:39:53;100700.50;;;19.39;100.00
69772;BME280;57046;45.988;18.664;2022-08-30T22:42:26;100695.78;;;19.36;100.00
69772;BME280;57046;45.988;18.664;2022-08-30T22:44:51;100699.66;;;19.35;100.00
69772;BME280;57046;45.988;18.664;2022-08-30T22:47:17;100690.66;;;19.34;100.00
69772;BME280;57046;45.988;18.664;2022-08-30T22:56:19;100682.06;;;19.36;100.00
69772;BME280;57046;45.988;18.664;2022-08-30T22:58:45;100687.06;;;19.30;100.00
69772;BME280;57046;45.988;18.664;2022-08-30T23:17:23;100675.88;;;19.12;100.00
69772;BME280;57046;45.988;18.664;2022-08-30T23:23:58;100678.91;;;19.04;100.00
69772;BME280;57046;45.988;18.664;2022-08-30T23:27:06;100656.72;;;18.83;100.00
69772;BME280;57046;45.988;18.664;2022-08-30T23:29:32;100671.38;;;18.97;100.00
69772;BME280;57046;45.988;18.664;2022-08-30T23:32:01;100676.88;;;18.97;100.00
69772;BME280;57046;45.988;18.664;2022-08-30T23:34:30;100665.03;;;18.90;100.00
69772;BME280;57046;45.988;18.664;2022-08-30T23:36:55;100673.56;;;18.85;100.00
69772;BME280;57046;45.988;18.664;2022-08-30T23:39:23;100684.56;;;18.88;100.00
69772;BME280;57046;45.988;18.664;2022-08-30T23:41:51;100677.88;;;18.86;100.00
69772;BME280;57046;45.988;18.664;2022-08-30T23:44:16;100672.78;;;18.84;100.00
69772;BME280;57046;45.988;18.664;2022-08-30T23:46:41;100670.09;;;18.88;100.00
69772;BME280;57046;45.988;18.664;2022-08-30T23:49:07;100666.13;;;18.85;100.00
69772;BME280;57046;45.988;18.664;2022-08-30T23:51:33;100672.88;;;18.91;100.00
69772;BME280;57046;45.988;18.664;2022-08-30T23:54:02;100659.91;;;18.88;100.00
69772;BME280;57046;45.988;18.664;2022-08-30T23:56:30;100660.28;;;18.87;100.00
69772;BME280;57046;45.988;18.664;2022-08-30T23:58:55;100664.72;;;18.95;100.00
